Terminal Aerodrome Forecast
Issued by NWS

Home | Current Version | Previous Version | Graphics & Text | Print | Product List | Glossary Off
Versions: 1 2 3 4 5 6 7 8 9 10 11 12 13 14 15 16 17 18

000
FTUS43 KABR 221733
TAFPIR
TAF
KPIR 221733Z 2218/2318 31017KT 1SM BR OVC002
     FM222100 33011KT 5SM BR OVC020
     FM222200 33010KT P6SM OVC020
     FM230000 32006KT P6SM OVC030
     FM230500 30004KT P6SM SCT015
     FM230900 29005KT P6SM BKN025
     FM231300 29006KT P6SM BKN050
     FM231700 29011KT P6SM SCT090=

USA.gov is the U.S. government's official web portal to all federal, state and local government web resources and services.